sensor_id;sensor_type;location;lat;lon;timestamp;P1;durP1;ratioP1;P2;durP2;ratioP2
30466;SDS011;17258;52.560;13.046;2023-04-06T00:01:15;2.65;;;2.45;;
30466;SDS011;17258;52.560;13.046;2023-04-06T00:11:16;3.57;;;2.73;;
30466;SDS011;17258;52.560;13.046;2023-04-06T00:21:17;3.08;;;2.78;;
30466;SDS011;17258;52.560;13.046;2023-04-06T00:31:17;3.10;;;2.88;;
30466;SDS011;17258;52.560;13.046;2023-04-06T00:41:18;3.33;;;3.03;;
30466;SDS011;17258;52.560;13.046;2023-04-06T00:51:20;3.10;;;2.90;;
30466;SDS011;17258;52.560;13.046;2023-04-06T01:01:21;7.60;;;3.57;;
30466;SDS011;17258;52.560;13.046;2023-04-06T01:11:23;3.67;;;3.38;;
30466;SDS011;17258;52.560;13.046;2023-04-06T01:21:23;4.53;;;3.53;;
30466;SDS011;17258;52.560;13.046;2023-04-06T01:31:25;3.72;;;2.70;;
30466;SDS011;17258;52.560;13.046;2023-04-06T01:41:26;3.03;;;2.75;;
30466;SDS011;17258;52.560;13.046;2023-04-06T01:51:26;3.03;;;2.80;;
30466;SDS011;17258;52.560;13.046;2023-04-06T02:01:27;3.17;;;2.97;;
30466;SDS011;17258;52.560;13.046;2023-04-06T02:11:28;4.63;;;3.03;;
30466;SDS011;17258;52.560;13.046;2023-04-06T02:21:28;3.60;;;2.67;;
30466;SDS011;17258;52.560;13.046;2023-04-06T02:31:29;2.88;;;2.58;;
30466;SDS011;17258;52.560;13.046;2023-04-06T02:41:30;3.13;;;2.83;;
30466;SDS011;17258;52.560;13.046;2023-04-06T02:51:30;2.70;;;2.50;;
30466;SDS011;17258;52.560;13.046;2023-04-06T03:01:31;3.00;;;2.80;;
30466;SDS011;17258;52.560;13.046;2023-04-06T03:11:32;4.32;;;2.95;;
30466;SDS011;17258;52.560;13.046;2023-04-06T03:21:32;2.53;;;2.33;;
30466;SDS011;17258;52.560;13.046;2023-04-06T03:31:33;2.47;;;2.27;;
30466;SDS011;17258;52.560;13.046;2023-04-06T03:41:34;3.73;;;2.50;;
30466;SDS011;17258;52.560;13.046;2023-04-06T03:51:35;2.47;;;2.28;;
30466;SDS011;17258;52.560;13.046;2023-04-06T04:01:35;4.27;;;2.83;;
30466;SDS011;17258;52.560;13.046;2023-04-06T04:11:36;5.87;;;2.87;;
30466;SDS011;17258;52.560;13.046;2023-04-06T04:21:42;3.20;;;3.00;;
30466;SDS011;17258;52.560;13.046;2023-04-06T04:31:44;3.22;;;2.97;;
30466;SDS011;17258;52.560;13.046;2023-04-06T04:41:45;2.97;;;2.77;;
30466;SDS011;17258;52.560;13.046;2023-04-06T04:51:46;5.83;;;3.57;;
30466;SDS011;17258;52.560;13.046;2023-04-06T05:01:46;3.03;;;2.60;;
30466;SDS011;17258;52.560;13.046;2023-04-06T05:11:47;3.35;;;2.67;;
30466;SDS011;17258;52.560;13.046;2023-04-06T05:21:48;6.27;;;4.37;;
30466;SDS011;17258;52.560;13.046;2023-04-06T05:31:48;8.97;;;4.23;;
30466;SDS011;17258;52.560;13.046;2023-04-06T05:41:50;3.28;;;3.00;;
30466;SDS011;17258;52.560;13.046;2023-04-06T05:51:51;11.23;;;3.47;;
30466;SDS011;17258;52.560;13.046;2023-04-06T06:01:51;10.10;;;3.63;;
30466;SDS011;17258;52.560;13.046;2023-04-06T06:11:52;7.50;;;3.13;;
30466;SDS011;17258;52.560;13.046;2023-04-06T06:21:53;2.50;;;2.30;;
30466;SDS011;17258;52.560;13.046;2023-04-06T06:31:53;3.00;;;2.67;;
30466;SDS011;17258;52.560;13.046;2023-04-06T06:41:54;2.47;;;2.00;;
30466;SDS011;17258;52.560;13.046;2023-04-06T06:51:55;3.77;;;2.67;;
30466;SDS011;17258;52.560;13.046;2023-04-06T07:01:55;3.27;;;2.97;;
30466;SDS011;17258;52.560;13.046;2023-04-06T07:11:56;3.40;;;3.13;;
30466;SDS011;17258;52.560;13.046;2023-04-06T07:21:57;3.88;;;2.80;;
30466;SDS011;17258;52.560;13.046;2023-04-06T07:31:57;2.67;;;2.47;;
30466;SDS011;17258;52.560;13.046;2023-04-06T07:41:58;5.17;;;2.53;;
30466;SDS011;17258;52.560;13.046;2023-04-06T07:51:59;2.17;;;2.00;;
30466;SDS011;17258;52.560;13.046;2023-04-06T08:02:00;4.20;;;2.47;;
30466;SDS011;17258;52.560;13.046;2023-04-06T08:12:01;2.37;;;1.70;;
30466;SDS011;17258;52.560;13.046;2023-04-06T08:22:01;1.60;;;1.50;;
30466;SDS011;17258;52.560;13.046;2023-04-06T08:32:02;1.40;;;1.30;;
30466;SDS011;17258;52.560;13.046;2023-04-06T08:42:10;1.30;;;1.20;;
30466;SDS011;17258;52.560;13.046;2023-04-06T08:52:18;1.40;;;1.30;;
30466;SDS011;17258;52.560;13.046;2023-04-06T09:02:19;2.17;;;1.42;;
30466;SDS011;17258;52.560;13.046;2023-04-06T09:12:25;1.58;;;1.23;;
30466;SDS011;17258;52.560;13.046;2023-04-06T09:22:37;2.08;;;1.75;;
30466;SDS011;17258;52.560;13.046;2023-04-06T09:32:46;1.83;;;1.55;;
30466;SDS011;17258;52.560;13.046;2023-04-06T09:42:49;1.38;;;1.27;;
30466;SDS011;17258;52.560;13.046;2023-04-06T09:52:53;2.65;;;1.65;;
30466;SDS011;17258;52.560;13.046;2023-04-06T10:13:57;1.77;;;1.67;;
30466;SDS011;17258;52.560;13.046;2023-04-06T10:23:59;1.58;;;1.48;;
30466;SDS011;17258;52.560;13.046;2023-04-06T10:34:02;1.40;;;1.30;;
30466;SDS011;17258;52.560;13.046;2023-04-06T10:44:03;1.63;;;1.40;;
30466;SDS011;17258;52.560;13.046;2023-04-06T10:54:05;2.13;;;2.03;;
30466;SDS011;17258;52.560;13.046;2023-04-06T11:04:07;1.48;;;1.38;;
30466;SDS011;17258;52.560;13.046;2023-04-06T11:14:09;1.60;;;1.50;;
30466;SDS011;17258;52.560;13.046;2023-04-06T11:24:11;1.93;;;1.73;;
30466;SDS011;17258;52.560;13.046;2023-04-06T11:34:15;1.88;;;1.58;;
30466;SDS011;17258;52.560;13.046;2023-04-06T11:44:34;22.05;;;20.08;;
30466;SDS011;17258;52.560;13.046;2023-04-06T11:54:38;21.65;;;19.95;;
30466;SDS011;17258;52.560;13.046;2023-04-06T12:04:39;21.83;;;20.13;;
30466;SDS011;17258;52.560;13.046;2023-04-06T12:14:39;21.53;;;19.83;;
30466;SDS011;17258;52.560;13.046;2023-04-06T12:24:40;1.50;;;1.40;;
30466;SDS011;17258;52.560;13.046;2023-04-06T12:34:41;22.33;;;20.53;;
30466;SDS011;17258;52.560;13.046;2023-04-06T12:44:41;23.17;;;21.27;;
30466;SDS011;17258;52.560;13.046;2023-04-06T12:54:42;23.05;;;21.15;;
30466;SDS011;17258;52.560;13.046;2023-04-06T13:04:43;23.50;;;21.40;;
30466;SDS011;17258;52.560;13.046;2023-04-06T13:14:44;23.37;;;21.47;;
30466;SDS011;17258;52.560;13.046;2023-04-06T13:24:47;23.38;;;21.30;;
30466;SDS011;17258;52.560;13.046;2023-04-06T13:34:47;23.00;;;21.20;;
30466;SDS011;17258;52.560;13.046;2023-04-06T13:44:48;26.75;;;24.30;;
30466;SDS011;17258;52.560;13.046;2023-04-06T13:54:50;24.38;;;22.42;;
30466;SDS011;17258;52.560;13.046;2023-04-06T14:04:52;24.25;;;22.02;;
30466;SDS011;17258;52.560;13.046;2023-04-06T14:14:54;23.08;;;21.17;;
30466;SDS011;17258;52.560;13.046;2023-04-06T14:24:54;23.27;;;21.43;;
30466;SDS011;17258;52.560;13.046;2023-04-06T14:34:55;22.77;;;21.13;;
30466;SDS011;17258;52.560;13.046;2023-04-06T14:44:56;2.40;;;1.73;;
30466;SDS011;17258;52.560;13.046;2023-04-06T14:54:57;23.65;;;21.65;;
30466;SDS011;17258;52.560;13.046;2023-04-06T15:04:57;21.73;;;20.03;;
30466;SDS011;17258;52.560;13.046;2023-04-06T15:14:58;21.87;;;20.07;;
30466;SDS011;17258;52.560;13.046;2023-04-06T15:25:00;20.08;;;18.58;;
30466;SDS011;17258;52.560;13.046;2023-04-06T15:35:08;20.50;;;18.90;;
30466;SDS011;17258;52.560;13.046;2023-04-06T15:45:10;12.00;;;11.20;;
30466;SDS011;17258;52.560;13.046;2023-04-06T15:55:11;19.73;;;18.30;;
30466;SDS011;17258;52.560;13.046;2023-04-06T16:05:12;19.00;;;17.70;;
30466;SDS011;17258;52.560;13.046;2023-04-06T16:15:12;16.10;;;15.10;;
30466;SDS011;17258;52.560;13.046;2023-04-06T16:25:13;15.77;;;14.57;;
30466;SDS011;17258;52.560;13.046;2023-04-06T16:35:14;9.82;;;9.23;;
30466;SDS011;17258;52.560;13.046;2023-04-06T16:45:15;7.93;;;7.53;;
30466;SDS011;17258;52.560;13.046;2023-04-06T16:55:16;4.78;;;4.55;;
30466;SDS011;17258;52.560;13.046;2023-04-06T17:05:17;1.77;;;1.60;;
30466;SDS011;17258;52.560;13.046;2023-04-06T17:15:23;2.90;;;2.30;;
30466;SDS011;17258;52.560;13.046;2023-04-06T17:25:25;5.78;;;1.52;;
30466;SDS011;17258;52.560;13.046;2023-04-06T17:35:25;1.87;;;1.77;;
30466;SDS011;17258;52.560;13.046;2023-04-06T17:45:26;2.33;;;2.13;;
30466;SDS011;17258;52.560;13.046;2023-04-06T17:55:27;1.70;;;1.60;;
30466;SDS011;17258;52.560;13.046;2023-04-06T18:05:27;2.57;;;2.37;;
30466;SDS011;17258;52.560;13.046;2023-04-06T18:15:28;2.42;;;2.28;;
30466;SDS011;17258;52.560;13.046;2023-04-06T18:25:30;4.82;;;4.18;;
30466;SDS011;17258;52.560;13.046;2023-04-06T18:35:30;3.30;;;3.00;;
30466;SDS011;17258;52.560;13.046;2023-04-06T18:45:31;7.10;;;2.57;;
30466;SDS011;17258;52.560;13.046;2023-04-06T18:55:37;2.60;;;2.28;;
30466;SDS011;17258;52.560;13.046;2023-04-06T19:05:41;2.80;;;2.53;;
30466;SDS011;17258;52.560;13.046;2023-04-06T19:15:41;3.10;;;2.83;;
30466;SDS011;17258;52.560;13.046;2023-04-06T19:25:42;2.93;;;2.73;;
30466;SDS011;17258;52.560;13.046;2023-04-06T19:35:43;3.45;;;3.20;;
30466;SDS011;17258;52.560;13.046;2023-04-06T19:45:44;5.03;;;3.83;;
30466;SDS011;17258;52.560;13.046;2023-04-06T19:55:45;3.83;;;3.15;;
30466;SDS011;17258;52.560;13.046;2023-04-06T20:05:45;5.65;;;3.45;;
30466;SDS011;17258;52.560;13.046;2023-04-06T20:15:46;2.63;;;2.43;;
30466;SDS011;17258;52.560;13.046;2023-04-06T20:25:48;2.88;;;2.67;;
30466;SDS011;17258;52.560;13.046;2023-04-06T20:35:58;5.60;;;3.17;;
30466;SDS011;17258;52.560;13.046;2023-04-06T20:46:00;3.05;;;2.80;;
30466;SDS011;17258;52.560;13.046;2023-04-06T20:56:01;3.97;;;2.95;;
30466;SDS011;17258;52.560;13.046;2023-04-06T21:06:02;3.65;;;3.35;;
30466;SDS011;17258;52.560;13.046;2023-04-06T21:16:03;3.75;;;3.35;;
30466;SDS011;17258;52.560;13.046;2023-04-06T21:26:04;4.57;;;3.50;;
30466;SDS011;17258;52.560;13.046;2023-04-06T21:36:05;5.68;;;3.50;;
30466;SDS011;17258;52.560;13.046;2023-04-06T21:46:06;6.95;;;3.83;;
30466;SDS011;17258;52.560;13.046;2023-04-06T21:56:07;5.40;;;3.97;;
30466;SDS011;17258;52.560;13.046;2023-04-06T22:06:08;3.73;;;3.43;;
30466;SDS011;17258;52.560;13.046;2023-04-06T22:16:08;6.33;;;3.47;;
30466;SDS011;17258;52.560;13.046;2023-04-06T22:26:10;3.00;;;2.80;;
30466;SDS011;17258;52.560;13.046;2023-04-06T22:36:11;3.42;;;2.60;;
30466;SDS011;17258;52.560;13.046;2023-04-06T22:46:11;3.20;;;3.00;;
30466;SDS011;17258;52.560;13.046;2023-04-06T22:56:12;3.57;;;3.00;;
30466;SDS011;17258;52.560;13.046;2023-04-06T23:06:13;3.67;;;3.37;;
30466;SDS011;17258;52.560;13.046;2023-04-06T23:16:14;4.25;;;3.55;;
30466;SDS011;17258;52.560;13.046;2023-04-06T23:26:15;3.33;;;2.92;;
30466;SDS011;17258;52.560;13.046;2023-04-06T23:36:15;3.83;;;3.57;;
30466;SDS011;17258;52.560;13.046;2023-04-06T23:46:16;3.97;;;3.67;;
30466;SDS011;17258;52.560;13.046;2023-04-06T23:56:17;3.65;;;3.35;;
